Time;durP1;ratioP1;P1;durP2;ratioP2;P2;SDS_P1;SDS_P2;PMS_P1;PMS_P2;Temp;Humidity;BMP_temperature;BMP_pressure;BME280_temperature;BME280_humidity;BME280_pressure;Samples;Min_cycle;Max_cycle;Signal;HPM_P1;HPM_P2
2023/09/09 00:00:31;;;;;;;5.20;5.10;;;19.10;99.90;;;;;;4988141;28;20549;-66
2023/09/09 00:02:58;;;;;;;5.10;5.03;;;19.10;99.90;;;;;;4980510;28;20511;-66
2023/09/09 00:05:29;;;;;;;5.20;5.10;;;19.00;99.90;;;;;;4984769;28;20470;-67
2023/09/09 00:07:56;;;;;;;4.90;4.90;;;19.00;99.90;;;;;;4986840;28;20459;-66
2023/09/09 00:10:23;;;;;;;5.20;5.13;;;18.90;99.90;;;;;;4981536;28;20957;-67
2023/09/09 00:12:50;;;;;;;5.37;5.27;;;18.90;99.90;;;;;;4987222;28;20462;-66
2023/09/09 00:15:17;;;;;;;4.30;4.30;;;18.90;99.90;;;;;;4985780;28;20482;-66
2023/09/09 00:17:44;;;;;;;4.27;4.27;;;18.90;99.90;;;;;;4981571;28;20476;-66
2023/09/09 00:20:11;;;;;;;3.93;3.93;;;18.90;99.90;;;;;;4983918;28;20466;-66
2023/09/09 00:22:40;;;;;;;4.43;4.43;;;18.90;99.90;;;;;;4985216;28;20470;-66
2023/09/09 00:25:08;;;;;;;3.10;3.10;;;18.90;99.90;;;;;;4986600;28;20462;-67
2023/09/09 00:27:36;;;;;;;3.80;3.80;;;18.80;99.90;;;;;;4979767;28;20533;-67
2023/09/09 00:30:03;;;;;;;3.73;3.73;;;18.70;99.90;;;;;;4983900;28;20474;-66
2023/09/09 00:32:31;;;;;;;3.80;3.80;;;18.70;99.90;;;;;;4986956;28;20513;-66
2023/09/09 00:34:58;;;;;;;4.20;4.20;;;18.60;99.90;;;;;;4985278;28;20501;-67
2023/09/09 00:37:26;;;;;;;3.70;3.70;;;18.60;99.90;;;;;;4987382;28;20525;-66
2023/09/09 00:39:54;;;;;;;3.80;3.80;;;18.50;99.90;;;;;;4987026;28;20467;-66
2023/09/09 00:42:21;;;;;;;3.73;3.73;;;18.50;99.90;;;;;;4977193;28;20812;-67
2023/09/09 00:44:48;;;;;;;3.80;3.80;;;18.40;99.90;;;;;;4987477;28;21016;-67
2023/09/09 00:47:17;;;;;;;3.40;3.40;;;18.30;99.90;;;;;;4983015;28;20998;-66
2023/09/09 00:49:44;;;;;;;3.00;3.00;;;18.30;99.90;;;;;;4981491;28;20493;-66
2023/09/09 00:52:11;;;;;;;2.80;2.80;;;18.20;99.90;;;;;;4987526;28;20462;-66
2023/09/09 00:54:38;;;;;;;2.40;2.40;;;18.10;99.90;;;;;;4983976;28;20491;-66
2023/09/09 00:57:07;;;;;;;2.40;2.40;;;17.90;99.90;;;;;;4981568;28;20552;-66
2023/09/09 00:59:33;;;;;;;2.43;2.43;;;17.80;99.90;;;;;;4983368;28;20463;-67
2023/09/09 01:02:02;;;;;;;3.03;3.03;;;17.80;99.90;;;;;;4982125;28;20463;-67
2023/09/09 01:04:29;;;;;;;2.70;2.70;;;17.80;99.90;;;;;;4986586;28;21381;-67
2023/09/09 01:06:58;;;;;;;2.80;2.80;;;17.80;99.90;;;;;;4990971;28;20463;-67
2023/09/09 01:09:25;;;;;;;2.80;2.80;;;17.80;99.90;;;;;;4990484;28;20559;-66
2023/09/09 01:11:51;;;;;;;2.60;2.60;;;17.80;99.90;;;;;;4987583;28;20469;-66
2023/09/09 01:14:19;;;;;;;2.40;2.40;;;17.80;99.90;;;;;;4978683;28;20775;-66
2023/09/09 01:16:50;;;;;;;2.77;2.77;;;17.80;99.90;;;;;;4988278;28;20506;-67
2023/09/09 01:19:20;;;;;;;2.93;2.93;;;17.80;99.90;;;;;;4990956;28;20482;-66
2023/09/09 01:21:49;;;;;;;3.10;3.10;;;17.80;99.90;;;;;;4988398;28;20686;-67
2023/09/09 01:24:17;;;;;;;2.83;2.83;;;17.70;99.90;;;;;;4989950;28;20466;-66
2023/09/09 01:26:45;;;;;;;3.20;3.20;;;17.80;99.90;;;;;;4990076;28;20483;-66
2023/09/09 01:29:12;;;;;;;3.20;3.20;;;17.70;99.90;;;;;;4985411;28;20463;-66
2023/09/09 01:31:39;;;;;;;3.00;3.00;;;17.80;99.90;;;;;;4985274;28;20577;-66
2023/09/09 01:34:07;;;;;;;3.40;3.40;;;17.80;99.90;;;;;;4990668;28;20463;-65
2023/09/09 01:36:34;;;;;;;3.23;3.23;;;17.80;99.90;;;;;;4988626;28;20486;-66
2023/09/09 01:39:01;;;;;;;3.10;3.10;;;17.80;99.90;;;;;;4986313;28;20881;-67
2023/09/09 01:41:30;;;;;;;3.27;3.27;;;17.80;99.90;;;;;;4983609;28;20817;-67
2023/09/09 01:43:57;;;;;;;3.40;3.40;;;17.70;99.90;;;;;;4989721;28;20454;-66
2023/09/09 01:46:25;;;;;;;3.10;3.10;;;17.70;99.90;;;;;;4983278;28;20478;-66
2023/09/09 01:48:52;;;;;;;3.33;3.33;;;17.70;99.90;;;;;;4990796;28;20450;-65
2023/09/09 01:51:19;;;;;;;3.03;3.03;;;17.70;99.90;;;;;;4986991;28;20475;-67
2023/09/09 01:53:46;;;;;;;3.23;3.23;;;17.70;99.90;;;;;;4990107;28;20541;-66
2023/09/09 01:56:12;;;;;;;3.40;3.40;;;17.70;99.90;;;;;;4981222;28;20504;-67
2023/09/09 01:58:40;;;;;;;3.53;3.53;;;17.70;99.90;;;;;;4990230;28;20458;-66
2023/09/09 02:01:07;;;;;;;3.67;3.67;;;17.70;99.90;;;;;;4989688;28;20462;-67
2023/09/09 02:03:35;;;;;;;3.60;3.60;;;17.70;99.90;;;;;;4989202;28;21193;-66
2023/09/09 02:06:03;;;;;;;3.50;3.50;;;17.70;99.90;;;;;;4981441;28;20537;-65
2023/09/09 02:08:29;;;;;;;2.90;2.90;;;17.60;99.90;;;;;;4989050;28;20848;-66
2023/09/09 02:10:56;;;;;;;4.10;4.10;;;17.50;99.90;;;;;;4985633;28;20517;-67
2023/09/09 02:13:23;;;;;;;2.90;2.90;;;17.40;99.90;;;;;;4988589;28;20883;-65
2023/09/09 02:15:51;;;;;;;2.80;2.80;;;17.50;99.90;;;;;;4981715;28;20466;-66
2023/09/09 02:18:18;;;;;;;3.40;3.40;;;17.50;99.90;;;;;;4990179;28;20455;-66
2023/09/09 02:20:45;;;;;;;3.20;3.20;;;17.40;99.90;;;;;;4982226;28;20558;-66
2023/09/09 02:23:12;;;;;;;3.60;3.60;;;17.30;99.90;;;;;;4986836;28;20506;-66
2023/09/09 02:25:39;;;;;;;3.60;3.60;;;17.30;99.90;;;;;;4987216;28;20482;-67
2023/09/09 02:28:06;;;;;;;3.60;3.60;;;17.20;99.90;;;;;;4980340;28;20554;-66
2023/09/09 02:30:32;;;;;;;3.30;3.30;;;17.20;99.90;;;;;;4988524;28;21342;-65
2023/09/09 02:33:00;;;;;;;3.73;3.73;;;17.20;99.90;;;;;;4981277;28;20467;-66
2023/09/09 02:35:28;;;;;;;3.70;3.70;;;17.20;99.90;;;;;;4989442;28;20524;-66
2023/09/09 02:37:55;;;;;;;3.47;3.47;;;17.20;99.90;;;;;;4986872;28;20503;-66
2023/09/09 02:40:21;;;;;;;3.17;3.17;;;17.20;99.90;;;;;;4988686;28;20533;-65
2023/09/09 02:42:48;;;;;;;3.20;3.20;;;17.20;99.90;;;;;;4988500;28;20516;-67
2023/09/09 02:45:15;;;;;;;3.50;3.50;;;17.20;99.90;;;;;;4978829;28;20523;-65
2023/09/09 02:47:42;;;;;;;3.70;3.70;;;17.20;99.90;;;;;;4981741;28;20493;-66
2023/09/09 02:50:11;;;;;;;3.70;3.70;;;17.20;99.90;;;;;;4989319;28;20458;-66
2023/09/09 02:52:38;;;;;;;3.60;3.60;;;17.20;99.90;;;;;;4989476;28;20459;-66
2023/09/09 02:55:06;;;;;;;3.50;3.50;;;17.20;99.90;;;;;;4986562;28;20482;-67
2023/09/09 02:57:33;;;;;;;3.93;3.93;;;17.10;99.90;;;;;;4982407;28;20864;-65
2023/09/09 03:00:00;;;;;;;4.20;4.20;;;17.10;99.90;;;;;;4981450;28;20513;-67
2023/09/09 03:02:26;;;;;;;4.23;4.23;;;17.00;99.90;;;;;;4987774;28;20877;-67
2023/09/09 03:04:53;;;;;;;4.17;4.17;;;17.00;99.90;;;;;;4986451;28;20465;-66
2023/09/09 03:07:22;;;;;;;4.27;4.27;;;17.00;99.90;;;;;;4988940;28;20505;-66
2023/09/09 03:09:50;;;;;;;4.33;4.33;;;17.00;99.90;;;;;;4980029;28;20525;-67
2023/09/09 03:12:20;;;;;;;4.30;4.30;;;17.00;99.90;;;;;;4980323;28;20533;-67
2023/09/09 03:14:48;;;;;;;4.30;4.30;;;16.90;99.90;;;;;;4989095;28;20512;-66
2023/09/09 03:17:15;;;;;;;4.43;4.43;;;16.90;99.90;;;;;;4988655;28;20544;-66
2023/09/09 03:19:42;;;;;;;4.40;4.40;;;16.80;99.90;;;;;;4984565;28;20478;-67
2023/09/09 03:22:10;;;;;;;4.30;4.30;;;16.80;99.90;;;;;;4983091;28;22512;-68
2023/09/09 03:24:38;;;;;;;3.80;3.80;;;16.70;99.90;;;;;;4979338;28;20886;-67
2023/09/09 03:27:05;;;;;;;4.10;4.10;;;16.70;99.90;;;;;;4986787;28;20855;-67
2023/09/09 03:29:32;;;;;;;4.23;4.23;;;16.60;99.90;;;;;;4987114;28;20529;-66
2023/09/09 03:31:59;;;;;;;3.17;3.17;;;16.60;99.90;;;;;;4984449;28;20959;-67
2023/09/09 03:34:27;;;;;;;3.17;3.17;;;16.60;99.90;;;;;;4981550;28;20471;-66
2023/09/09 03:36:54;;;;;;;3.50;3.50;;;16.60;99.90;;;;;;4988448;28;20534;-67
2023/09/09 03:39:21;;;;;;;3.23;3.23;;;16.50;99.90;;;;;;4980246;28;20853;-65
2023/09/09 03:41:49;;;;;;;4.10;4.10;;;16.60;99.90;;;;;;4984302;28;20992;-68
2023/09/09 03:44:16;;;;;;;3.77;3.77;;;16.50;99.90;;;;;;4988198;28;20795;-67
2023/09/09 03:46:43;;;;;;;4.00;4.00;;;16.60;99.90;;;;;;4987293;28;20459;-67
2023/09/09 03:49:11;;;;;;;3.90;3.90;;;16.60;99.90;;;;;;4980438;28;20470;-67
2023/09/09 03:51:38;;;;;;;4.13;4.13;;;16.50;99.90;;;;;;4982217;28;20562;-66
2023/09/09 03:54:05;;;;;;;3.80;3.80;;;16.50;99.90;;;;;;4986596;28;20494;-66
2023/09/09 03:56:32;;;;;;;4.47;4.47;;;16.50;99.90;;;;;;4984348;28;20553;-68
2023/09/09 03:59:00;;;;;;;4.50;4.50;;;16.50;99.90;;;;;;4987323;28;20861;-67
2023/09/09 04:01:28;;;;;;;4.33;4.33;;;16.50;99.90;;;;;;4985947;28;20863;-65
2023/09/09 04:03:56;;;;;;;4.67;4.67;;;16.50;99.90;;;;;;4980974;28;20986;-65
2023/09/09 04:06:23;;;;;;;4.70;4.70;;;16.40;99.90;;;;;;4979941;28;20494;-66
2023/09/09 04:08:55;;;;;;;5.20;5.10;;;16.40;99.90;;;;;;4986052;28;20490;-65
2023/09/09 04:11:22;;;;;;;4.80;4.80;;;16.40;99.90;;;;;;4986266;28;20462;-67
2023/09/09 04:13:50;;;;;;;4.97;4.97;;;16.40;99.90;;;;;;4984125;28;20963;-66
2023/09/09 04:16:18;;;;;;;5.27;5.17;;;16.40;99.90;;;;;;4987152;28;20454;-67
2023/09/09 04:18:46;;;;;;;5.40;5.30;;;16.30;99.90;;;;;;4987770;28;21025;-66
2023/09/09 04:21:13;;;;;;;5.50;5.40;;;16.30;99.90;;;;;;4980997;28;20467;-66
2023/09/09 04:23:39;;;;;;;5.33;5.23;;;16.30;99.90;;;;;;4979633;28;20477;-66
2023/09/09 04:26:07;;;;;;;5.10;5.10;;;16.40;99.90;;;;;;4986641;28;20923;-67
2023/09/09 04:28:34;;;;;;;4.90;4.90;;;16.40;99.90;;;;;;4983459;28;20899;-66
2023/09/09 04:31:02;;;;;;;5.40;5.30;;;16.30;99.90;;;;;;4980233;28;20474;-67
2023/09/09 04:33:30;;;;;;;4.83;4.83;;;16.30;99.90;;;;;;4984341;28;20477;-67
2023/09/09 04:35:56;;;;;;;5.03;4.97;;;16.30;99.90;;;;;;4987187;28;20968;-66
2023/09/09 04:38:24;;;;;;;5.20;5.10;;;16.30;99.90;;;;;;4978319;28;20483;-66
2023/09/09 04:40:51;;;;;;;4.80;4.80;;;16.30;99.90;;;;;;4986350;28;20719;-66
2023/09/09 04:43:20;;;;;;;4.40;4.40;;;16.30;99.90;;;;;;4987383;28;20458;-67
2023/09/09 04:45:47;;;;;;;4.70;4.70;;;16.30;99.90;;;;;;4981588;28;20525;-66
2023/09/09 04:48:14;;;;;;;4.60;4.60;;;16.30;99.90;;;;;;4983036;28;20529;-65
2023/09/09 04:50:43;;;;;;;5.37;5.27;;;16.30;99.90;;;;;;4981856;28;20463;-66
2023/09/09 04:53:10;;;;;;;4.87;4.87;;;16.30;99.90;;;;;;4985131;28;20481;-67
2023/09/09 04:55:38;;;;;;;5.10;5.00;;;16.30;99.90;;;;;;4983498;28;20502;-66
2023/09/09 04:58:07;;;;;;;5.20;5.10;;;16.30;99.90;;;;;;4986311;28;20827;-67
2023/09/09 05:00:33;;;;;;;4.90;4.90;;;16.30;99.90;;;;;;4986167;28;20459;-66
2023/09/09 05:03:00;;;;;;;5.17;5.10;;;16.30;99.90;;;;;;4972576;28;20479;-66
2023/09/09 05:05:28;;;;;;;5.30;5.20;;;16.30;99.90;;;;;;4972904;28;20464;-67
2023/09/09 05:07:57;;;;;;;5.00;5.00;;;16.30;99.90;;;;;;4987577;28;20463;-65
2023/09/09 05:10:26;;;;;;;5.03;5.03;;;16.30;99.90;;;;;;4983456;28;20459;-66
2023/09/09 05:12:54;;;;;;;5.30;5.20;;;16.30;99.90;;;;;;4983938;28;20447;-65
2023/09/09 05:15:21;;;;;;;4.90;4.90;;;16.30;99.90;;;;;;4977079;28;20459;-66
2023/09/09 05:17:48;;;;;;;5.20;5.10;;;16.30;99.90;;;;;;4973088;28;20490;-67
2023/09/09 05:20:16;;;;;;;4.40;4.40;;;16.30;99.90;;;;;;4985692;28;20455;-66
2023/09/09 05:22:43;;;;;;;4.83;4.83;;;16.40;99.90;;;;;;4987257;28;20473;-65
2023/09/09 05:25:12;;;;;;;4.73;4.73;;;16.40;99.90;;;;;;4983932;28;20482;-66
2023/09/09 05:27:40;;;;;;;4.40;4.40;;;16.50;99.90;;;;;;4985631;28;20870;-65
2023/09/09 05:30:07;;;;;;;4.33;4.33;;;16.50;99.90;;;;;;4980887;28;20463;-66
2023/09/09 05:32:35;;;;;;;4.20;4.20;;;16.60;99.90;;;;;;4977136;28;20473;-67
2023/09/09 05:35:03;;;;;;;4.50;4.50;;;16.70;99.90;;;;;;4980194;28;20557;-66
2023/09/09 05:37:31;;;;;;;4.30;4.30;;;16.80;99.90;;;;;;4987069;28;20589;-66
2023/09/09 05:40:00;;;;;;;4.17;4.17;;;16.80;99.90;;;;;;4982940;28;20460;-66
2023/09/09 05:42:28;;;;;;;4.60;4.60;;;16.90;99.90;;;;;;4985011;28;21285;-67
2023/09/09 05:44:55;;;;;;;4.57;4.57;;;16.90;99.90;;;;;;4984981;28;20934;-65
2023/09/09 05:47:22;;;;;;;4.50;4.50;;;17.00;99.90;;;;;;4986563;28;20913;-66
2023/09/09 05:49:49;;;;;;;3.90;3.90;;;17.10;99.90;;;;;;4983100;28;20451;-67
2023/09/09 05:52:16;;;;;;;3.90;3.90;;;17.10;99.90;;;;;;4978249;28;20920;-66
2023/09/09 05:54:43;;;;;;;3.80;3.80;;;17.30;99.90;;;;;;4989483;28;20935;-67
2023/09/09 05:57:10;;;;;;;3.80;3.80;;;17.30;99.90;;;;;;4990955;28;20533;-65
2023/09/09 05:59:39;;;;;;;3.73;3.73;;;17.40;99.90;;;;;;4989529;28;20458;-65
2023/09/09 06:02:06;;;;;;;3.73;3.73;;;17.50;99.90;;;;;;4980614;28;20997;-65
2023/09/09 06:04:33;;;;;;;3.40;3.40;;;17.60;99.90;;;;;;4985840;28;20478;-65
2023/09/09 06:07:00;;;;;;;3.50;3.50;;;17.70;99.90;;;;;;4986776;28;20461;-66
2023/09/09 06:09:27;;;;;;;3.00;3.00;;;17.80;99.90;;;;;;4984671;28;20497;-67
2023/09/09 06:11:53;;;;;;;3.20;3.20;;;17.90;99.90;;;;;;4986871;28;20466;-67
2023/09/09 06:14:20;;;;;;;3.30;3.30;;;18.00;99.90;;;;;;4985658;28;20463;-67
2023/09/09 06:16:48;;;;;;;3.13;3.13;;;18.10;99.90;;;;;;4983668;28;20465;-66
2023/09/09 06:19:16;;;;;;;2.90;2.90;;;18.20;99.90;;;;;;4989356;28;20509;-66
2023/09/09 06:21:43;;;;;;;2.87;2.87;;;18.40;99.90;;;;;;4980331;28;20541;-66
2023/09/09 06:24:12;;;;;;;3.00;3.00;;;18.40;99.90;;;;;;4980416;28;20475;-67
2023/09/09 06:26:39;;;;;;;3.30;3.30;;;18.40;99.90;;;;;;4984853;28;20479;-65
2023/09/09 06:29:07;;;;;;;3.10;3.10;;;18.60;99.90;;;;;;4974726;28;20497;-67
2023/09/09 06:31:35;;;;;;;3.47;3.47;;;18.70;99.90;;;;;;4986566;28;20459;-66
2023/09/09 06:34:03;;;;;;;3.83;3.83;;;18.70;99.90;;;;;;4986166;28;20459;-66
2023/09/09 06:36:30;;;;;;;3.60;3.60;;;18.80;99.90;;;;;;4981004;28;20459;-66
2023/09/09 06:38:57;;;;;;;4.30;4.30;;;18.90;99.90;;;;;;4982597;28;20501;-67
2023/09/09 06:41:24;;;;;;;4.17;4.17;;;19.00;99.90;;;;;;4982576;28;21033;-65
2023/09/09 06:43:51;;;;;;;4.30;4.30;;;19.10;99.90;;;;;;4984217;28;20466;-66
2023/09/09 06:46:19;;;;;;;4.50;4.50;;;19.20;99.90;;;;;;4985905;28;20506;-67
2023/09/09 06:48:45;;;;;;;4.50;4.50;;;19.30;99.90;;;;;;4988752;28;20466;-65
2023/09/09 06:51:15;;;;;;;4.53;4.53;;;19.40;99.90;;;;;;4979917;28;20866;-66
2023/09/09 06:53:42;;;;;;;4.80;4.80;;;19.50;99.90;;;;;;4987055;28;20577;-67
2023/09/09 06:56:11;;;;;;;5.40;5.30;;;19.60;99.90;;;;;;4982980;28;20467;-66
2023/09/09 06:58:37;;;;;;;6.20;6.10;;;19.70;99.90;;;;;;4986406;28;20494;-67
2023/09/09 07:01:06;;;;;;;5.57;5.47;;;19.90;99.90;;;;;;4984226;28;20470;-66
2023/09/09 07:03:32;;;;;;;6.00;5.90;;;20.00;99.90;;;;;;4978400;28;20906;-67
2023/09/09 07:06:00;;;;;;;5.70;5.60;;;20.20;99.90;;;;;;4986509;28;20537;-66
2023/09/09 07:08:28;;;;;;;5.37;5.27;;;20.40;99.90;;;;;;4982757;28;20553;-67
2023/09/09 07:10:56;;;;;;;5.03;5.03;;;20.50;99.90;;;;;;4988120;28;20461;-67
2023/09/09 07:13:24;;;;;;;5.90;5.80;;;20.50;99.90;;;;;;4987209;28;20469;-67
2023/09/09 07:15:52;;;;;;;6.20;6.10;;;20.60;99.90;;;;;;4984964;28;20466;-67
2023/09/09 07:18:18;;;;;;;6.10;6.00;;;20.80;99.90;;;;;;4981547;28;20577;-68
2023/09/09 07:20:46;;;;;;;6.70;6.60;;;21.00;99.90;;;;;;4971919;28;20690;-66
2023/09/09 07:23:13;;;;;;;6.63;6.53;;;21.10;99.90;;;;;;4981462;28;20474;-67
2023/09/09 07:25:43;;;;;;;6.70;6.60;;;21.20;99.90;;;;;;4982555;28;20455;-66
2023/09/09 07:28:11;;;;;;;7.10;7.00;;;21.30;99.90;;;;;;4981248;28;21046;-68
2023/09/09 07:30:38;;;;;;;6.77;6.67;;;21.50;99.90;;;;;;4987558;28;20462;-66
2023/09/09 07:33:05;;;;;;;7.30;7.20;;;21.60;99.90;;;;;;4981907;28;20451;-66
2023/09/09 07:35:35;;;;;;;7.33;7.23;;;21.80;99.90;;;;;;4988007;28;20538;-67
2023/09/09 07:38:02;;;;;;;7.47;7.37;;;21.90;99.90;;;;;;4978525;28;20483;-67
2023/09/09 07:40:28;;;;;;;7.70;7.60;;;21.90;99.90;;;;;;4985412;28;20469;-67
2023/09/09 07:42:57;;;;;;;8.10;8.00;;;22.10;99.90;;;;;;4987702;28;20815;-68
2023/09/09 07:45:24;;;;;;;8.17;8.07;;;22.20;99.90;;;;;;4983521;28;20474;-67
2023/09/09 07:47:51;;;;;;;7.70;7.60;;;22.20;99.90;;;;;;4981263;28;20468;-67
2023/09/09 07:50:19;;;;;;;8.03;7.93;;;22.40;99.90;;;;;;4978171;28;20466;-67
2023/09/09 07:52:46;;;;;;;8.23;8.13;;;22.60;99.90;;;;;;4985662;28;20494;-67
2023/09/09 07:55:15;;;;;;;8.40;8.30;;;22.60;99.90;;;;;;4985128;28;20559;-67
2023/09/09 07:57:42;;;;;;;8.00;7.90;;;22.70;99.90;;;;;;4986009;28;20470;-68
2023/09/09 08:00:26;;;;;;;8.30;8.20;;;22.70;99.90;;;;;;4987575;28;20942;-67
2023/09/09 08:02:52;;;;;;;8.50;8.40;;;22.80;99.90;;;;;;4980280;28;20521;-67
2023/09/09 08:05:19;;;;;;;8.27;8.17;;;23.00;99.90;;;;;;4981336;28;20478;-68
2023/09/09 08:07:46;;;;;;;8.27;8.17;;;23.20;99.90;;;;;;4983898;28;20565;-68
2023/09/09 08:10:16;;;;;;;8.73;8.63;;;23.20;99.90;;;;;;4981640;28;20465;-67
2023/09/09 08:12:43;;;;;;;9.20;9.00;;;23.30;99.90;;;;;;4983994;28;20475;-68
2023/09/09 08:15:11;;;;;;;9.40;9.20;;;23.50;99.90;;;;;;4986869;28;20451;-68
2023/09/09 08:17:40;;;;;;;9.47;9.27;;;23.70;99.90;;;;;;4983732;28;21075;-68
2023/09/09 08:20:09;;;;;;;9.63;9.43;;;23.70;99.90;;;;;;4979584;28;20498;-68
2023/09/09 08:22:36;;;;;;;9.70;9.50;;;23.60;99.90;;;;;;4977896;28;20481;-68
2023/09/09 08:25:04;;;;;;;9.80;9.60;;;23.60;99.90;;;;;;4979649;28;20653;-68
2023/09/09 08:27:31;;;;;;;9.73;9.53;;;23.70;99.90;;;;;;4975632;28;20478;-67
2023/09/09 08:29:58;;;;;;;10.10;9.90;;;23.80;99.90;;;;;;4987335;28;20466;-68
2023/09/09 08:32:25;;;;;;;10.10;9.90;;;23.90;99.90;;;;;;4977454;28;20462;-68
2023/09/09 08:34:54;;;;;;;10.40;10.20;;;24.10;99.90;;;;;;4986602;28;20780;-68
2023/09/09 08:37:20;;;;;;;10.27;10.07;;;24.30;99.90;;;;;;4980566;28;20734;-68
2023/09/09 08:39:52;;;;;;;10.50;10.30;;;24.50;99.90;;;;;;4987246;28;20493;-68
2023/09/09 08:42:26;;;;;;;10.70;10.50;;;24.50;99.90;;;;;;4978575;28;21000;-67
2023/09/09 08:45:00;;;;;;;10.40;10.20;;;24.60;99.90;;;;;;4982098;28;20471;-68
2023/09/09 08:47:29;;;;;;;10.60;10.40;;;24.60;99.90;;;;;;4987133;28;20506;-67
2023/09/09 08:50:00;;;;;;;10.43;10.23;;;24.80;99.90;;;;;;4985741;28;20558;-67
2023/09/09 08:52:28;;;;;;;10.60;10.40;;;25.00;99.90;;;;;;4979783;28;20562;-68
2023/09/09 08:54:56;;;;;;;10.53;10.33;;;25.20;99.90;;;;;;4985968;28;20565;-67
2023/09/09 08:57:25;;;;;;;10.70;10.50;;;25.30;99.90;;;;;;4977647;28;20980;-68
2023/09/09 08:59:53;;;;;;;10.90;10.67;;;25.50;99.90;;;;;;4979481;28;20498;-68
2023/09/09 09:02:20;;;;;;;10.73;10.53;;;25.60;99.90;;;;;;4985128;28;20454;-68
2023/09/09 09:04:49;;;;;;;10.90;10.70;;;25.70;99.90;;;;;;4986606;28;20466;-68
2023/09/09 09:07:17;;;;;;;10.43;10.23;;;25.70;99.90;;;;;;4974709;28;20460;-68
2023/09/09 09:09:44;;;;;;;10.30;10.10;;;25.70;99.90;;;;;;4986237;28;20455;-68
2023/09/09 09:12:14;;;;;;;10.40;10.20;;;25.90;99.90;;;;;;4978462;28;20545;-68
2023/09/09 09:14:46;;;;;;;10.00;9.80;;;26.00;99.90;;;;;;4968086;28;20463;-68
2023/09/09 09:17:15;;;;;;;10.90;10.70;;;26.10;99.90;;;;;;4975231;28;20876;-68
2023/09/09 09:19:42;;;;;;;10.40;10.20;;;26.90;99.90;;;;;;4974193;28;20498;-68
2023/09/09 09:22:11;;;;;;;10.90;10.67;;;27.60;99.90;;;;;;4986723;28;20459;-68
2023/09/09 09:24:44;;;;;;;11.33;11.03;;;28.40;99.90;;;;;;4976109;28;20591;-68
2023/09/09 09:27:11;;;;;;;11.63;11.33;;;29.40;99.90;;;;;;4988730;28;22644;-68
2023/09/09 09:29:39;;;;;;;11.70;11.40;;;30.00;99.90;;;;;;4985594;28;20464;-68
2023/09/09 09:32:07;;;;;;;11.80;11.50;;;29.80;99.90;;;;;;4986268;28;20566;-68
2023/09/09 09:34:35;;;;;;;11.53;11.23;;;30.10;99.90;;;;;;4986796;28;21032;-68
2023/09/09 09:37:08;;;;;;;11.53;11.23;;;30.90;99.90;;;;;;4986517;28;20833;-68
2023/09/09 09:39:35;;;;;;;11.40;11.10;;;31.30;99.90;;;;;;4981937;28;20494;-68
2023/09/09 09:42:05;;;;;;;11.60;11.30;;;31.50;99.90;;;;;;4986792;28;20974;-68
2023/09/09 09:44:32;;;;;;;11.13;10.93;;;31.90;99.90;;;;;;4980014;28;20954;-68
2023/09/09 09:47:01;;;;;;;11.90;11.60;;;31.70;99.90;;;;;;4981249;28;20462;-68
2023/09/09 09:49:34;;;;;;;11.63;11.33;;;31.90;99.90;;;;;;4979918;28;20462;-68
2023/09/09 09:52:02;;;;;;;11.47;11.17;;;32.60;99.90;;;;;;4985371;28;20499;-68
2023/09/09 09:54:30;;;;;;;11.80;11.50;;;32.40;99.90;;;;;;4985445;28;20895;-68
2023/09/09 09:57:00;;;;;;;11.60;11.30;;;32.40;99.90;;;;;;4980420;28;20467;-68
2023/09/09 09:59:31;;;;;;;11.73;11.43;;;33.40;99.90;;;;;;4987093;28;20493;-68
2023/09/09 10:01:59;;;;;;;12.40;12.10;;;33.60;99.90;;;;;;4985474;28;21044;-69
2023/09/09 10:04:27;;;;;;;12.50;12.20;;;33.30;99.90;;;;;;4978988;28;20470;-69
2023/09/09 10:06:57;;;;;;;12.47;12.17;;;33.40;99.90;;;;;;4984320;28;20490;-67
2023/09/09 10:09:35;;;;;;;12.60;12.30;;;33.40;99.90;;;;;;4987488;28;20517;-67
2023/09/09 10:12:07;;;;;;;12.17;11.87;;;33.90;99.90;;;;;;4986261;28;20806;-66
2023/09/09 10:14:38;;;;;;;13.00;12.60;;;34.20;99.90;;;;;;4981139;28;20450;-67
2023/09/09 10:17:07;;;;;;;12.60;12.30;;;34.50;99.90;;;;;;4988843;28;20468;-67
2023/09/09 10:19:36;;;;;;;12.97;12.57;;;34.70;99.90;;;;;;4978886;28;20530;-67
2023/09/09 10:22:06;;;;;;;12.30;12.00;;;34.40;99.90;;;;;;4986966;28;20911;-68
2023/09/09 10:24:34;;;;;;;13.10;12.70;;;33.60;99.90;;;;;;4978712;28;20985;-68
2023/09/09 10:27:03;;;;;;;13.20;12.80;;;33.40;99.90;;;;;;4988054;28;20474;-68
2023/09/09 10:29:31;;;;;;;12.80;12.50;;;33.20;99.90;;;;;;4984030;28;20475;-68
2023/09/09 10:32:04;;;;;;;12.73;12.40;;;33.00;99.90;;;;;;4981054;28;20473;-68
2023/09/09 10:34:34;;;;;;;13.10;12.70;;;33.30;99.90;;;;;;4989753;28;20946;-67
2023/09/09 10:37:04;;;;;;;12.70;12.40;;;33.70;99.90;;;;;;4986711;28;20944;-68
2023/09/09 10:39:32;;;;;;;12.47;12.17;;;34.00;99.90;;;;;;4987367;28;21019;-67
2023/09/09 10:42:00;;;;;;;12.33;12.03;;;33.70;99.90;;;;;;4986175;28;20462;-68
2023/09/09 10:44:27;;;;;;;12.77;12.47;;;33.60;99.90;;;;;;4980617;28;20474;-68
2023/09/09 10:46:55;;;;;;;12.37;12.07;;;33.90;99.90;;;;;;4986105;28;20473;-67
2023/09/09 10:49:27;;;;;;;12.40;12.10;;;34.20;99.90;;;;;;4987420;28;20996;-67
2023/09/09 10:51:54;;;;;;;12.07;11.77;;;34.20;99.90;;;;;;4981295;28;20561;-68
2023/09/09 10:54:23;;;;;;;12.30;12.00;;;34.60;99.90;;;;;;4984387;28;20517;-67
2023/09/09 10:56:51;;;;;;;12.37;12.07;;;34.40;99.90;;;;;;4983968;28;20850;-68
2023/09/09 10:59:20;;;;;;;12.10;11.80;;;33.80;99.90;;;;;;4986450;28;20486;-68
2023/09/09 11:01:48;;;;;;;12.00;11.70;;;34.60;99.90;;;;;;4989203;28;20459;-68
2023/09/09 11:04:23;;;;;;;12.60;12.30;;;35.10;99.90;;;;;;4989363;28;20478;-68
2023/09/09 11:07:17;;;;;;;12.30;12.00;;;35.30;99.90;;;;;;4981464;28;20472;-67
2023/09/09 11:09:51;;;;;;;12.60;12.30;;;34.70;99.90;;;;;;4978200;28;20454;-68
2023/09/09 11:12:25;;;;;;;13.17;12.77;;;35.00;99.90;;;;;;4982443;28;20597;-67
2023/09/09 11:14:59;;;;;;;12.33;12.03;;;34.80;99.90;;;;;;4986711;28;20512;-68
2023/09/09 11:17:28;;;;;;;12.40;12.10;;;35.00;99.90;;;;;;4981644;28;20553;-68
2023/09/09 11:19:56;;;;;;;12.50;12.20;;;34.80;99.90;;;;;;4971598;28;21064;-68
2023/09/09 11:22:26;;;;;;;12.50;12.20;;;34.60;99.90;;;;;;4985368;28;20463;-67
2023/09/09 11:24:54;;;;;;;12.63;12.33;;;35.70;99.90;;;;;;4977218;28;20470;-67
2023/09/09 11:27:22;;;;;;;12.50;12.20;;;36.40;99.90;;;;;;4987731;28;20483;-68
2023/09/09 11:29:52;;;;;;;12.33;12.03;;;36.70;99.90;;;;;;4987958;28;20501;-68
2023/09/09 11:32:26;;;;;;;12.60;12.30;;;35.90;99.90;;;;;;4988253;28;20462;-68
2023/09/09 11:34:54;;;;;;;12.50;12.20;;;36.10;99.90;;;;;;4982897;28;20524;-68
2023/09/09 11:37:23;;;;;;;12.33;12.03;;;35.70;99.90;;;;;;4977453;28;20852;-68
2023/09/09 11:39:53;;;;;;;12.70;12.40;;;35.60;99.90;;;;;;4987915;28;20494;-67
2023/09/09 11:42:21;;;;;;;12.50;12.20;;;35.90;99.90;;;;;;4983017;28;20455;-68
2023/09/09 11:44:48;;;;;;;12.40;12.10;;;35.50;99.90;;;;;;4985716;28;20533;-67
2023/09/09 11:47:16;;;;;;;12.20;11.90;;;35.00;99.90;;;;;;4987170;28;20458;-67
2023/09/09 11:49:44;;;;;;;11.90;11.60;;;35.90;99.90;;;;;;4979547;28;20490;-68
2023/09/09 11:52:11;;;;;;;11.80;11.50;;;36.40;99.90;;;;;;4983864;28;20556;-67
2023/09/09 11:54:38;;;;;;;12.70;12.40;;;36.50;99.90;;;;;;4983937;28;20565;-68
2023/09/09 11:57:08;;;;;;;12.70;12.40;;;36.80;99.90;;;;;;4987354;28;20463;-68
2023/09/09 11:59:45;;;;;;;12.60;12.30;;;36.90;99.90;;;;;;4982374;28;20852;-68
2023/09/09 12:02:19;;;;;;;13.27;12.87;;;36.90;99.60;;;;;;4983529;28;20821;-69
2023/09/09 12:04:58;;;;;;;12.60;12.30;;;37.10;99.70;;;;;;4975520;28;20462;-68
2023/09/09 12:07:29;;;;;;;11.60;11.30;;;37.00;99.60;;;;;;4987536;28;20969;-68
2023/09/09 12:09:58;;;;;;;11.97;11.67;;;37.50;99.50;;;;;;4987125;28;20960;-69
2023/09/09 12:12:27;;;;;;;12.00;11.70;;;38.00;99.70;;;;;;4979542;28;20474;-68
2023/09/09 12:14:57;;;;;;;12.03;11.73;;;38.10;97.60;;;;;;4986478;28;20458;-68
2023/09/09 12:17:23;;;;;;;11.97;11.67;;;38.10;93.30;;;;;;4985221;28;21165;-68
2023/09/09 12:19:57;;;;;;;11.50;11.20;;;38.10;92.70;;;;;;4983539;28;20521;-69
2023/09/09 12:22:31;;;;;;;12.00;11.70;;;38.50;92.60;;;;;;4978273;28;21298;-68
2023/09/09 12:24:58;;;;;;;11.20;10.97;;;38.40;93.10;;;;;;4981584;28;20538;-68
2023/09/09 12:30:33;;;;;;;11.53;11.23;;;38.10;92.00;;;;;;5081798;27;21145;-69
2023/09/09 12:33:09;;;;;;;11.60;11.30;;;38.10;88.10;;;;;;5073292;28;20467;-69
2023/09/09 12:35:36;;;;;;;11.60;11.30;;;38.70;88.90;;;;;;5075175;28;20458;-67
2023/09/09 12:38:05;;;;;;;11.87;11.57;;;39.20;86.30;;;;;;5071970;28;20697;-67
2023/09/09 12:40:47;;;;;;;11.07;10.87;;;39.50;87.70;;;;;;5071649;28;20466;-67
2023/09/09 12:43:15;;;;;;;11.63;11.33;;;39.30;82.00;;;;;;5073248;28;20523;-67
2023/09/09 12:45:52;;;;;;;11.73;11.43;;;38.90;84.20;;;;;;5081137;28;20459;-67
2023/09/09 12:48:20;;;;;;;11.67;11.37;;;38.80;83.80;;;;;;5076798;28;20493;-68